Time;durP1;ratioP1;P1;durP2;ratioP2;P2;SDS_P1;SDS_P2;PMS_P1;PMS_P2;Temp;Humidity;BMP_temperature;BMP_pressure;BME280_temperature;BME280_humidity;BME280_pressure;Samples;Min_cycle;Max_cycle;Signal;HPM_P1;HPM_P2
2023/11/01 00:01:47;;;;;;;1.30;1.07;;;20.30;80.00;;;;;;5034882;28;20542;-88
2023/11/01 00:04:14;;;;;;;1.20;1.10;;;20.30;80.10;;;;;;5034880;28;20832;-88
2023/11/01 00:06:41;;;;;;;1.10;1.00;;;20.30;80.10;;;;;;5034915;28;20576;-88
2023/11/01 00:09:08;;;;;;;1.10;0.90;;;20.30;80.10;;;;;;5034931;28;20456;-88
2023/11/01 00:11:34;;;;;;;1.10;0.83;;;20.20;80.00;;;;;;5034850;28;21041;-88
2023/11/01 00:14:02;;;;;;;1.20;1.00;;;20.20;80.00;;;;;;5034730;28;20533;-88
2023/11/01 00:16:29;;;;;;;1.27;0.90;;;20.20;80.00;;;;;;5034784;28;20465;-88
2023/11/01 00:18:57;;;;;;;1.10;1.00;;;20.30;80.10;;;;;;5034978;28;20446;-88
2023/11/01 00:21:24;;;;;;;1.17;0.93;;;20.20;80.10;;;;;;5034605;28;20433;-88
2023/11/01 00:23:51;;;;;;;2.27;1.00;;;20.30;80.10;;;;;;5034656;28;20536;-88
2023/11/01 00:26:18;;;;;;;1.13;0.90;;;20.20;80.00;;;;;;5034509;28;20486;-88
2023/11/01 00:28:45;;;;;;;1.10;0.90;;;20.20;80.00;;;;;;5034595;28;20521;-88
2023/11/01 00:31:11;;;;;;;1.40;0.97;;;20.20;80.10;;;;;;5034645;28;20437;-88
2023/11/01 00:33:38;;;;;;;1.30;1.17;;;20.20;80.00;;;;;;5034473;28;20442;-88
2023/11/01 00:36:07;;;;;;;4.77;1.00;;;20.20;80.00;;;;;;5034848;28;20484;-88
2023/11/01 00:38:35;;;;;;;1.40;1.20;;;20.20;80.00;;;;;;5034281;28;20489;-88
2023/11/01 00:41:02;;;;;;;1.00;0.80;;;20.20;80.00;;;;;;5034296;28;20529;-88
2023/11/01 00:43:29;;;;;;;1.70;1.40;;;20.20;80.00;;;;;;5034163;28;20452;-88
2023/11/01 00:45:56;;;;;;;1.10;1.00;;;20.30;80.10;;;;;;5034070;28;20513;-88
2023/11/01 00:48:23;;;;;;;1.30;1.03;;;20.20;80.10;;;;;;5034295;28;20441;-88
2023/11/01 00:50:50;;;;;;;1.30;1.13;;;20.20;80.00;;;;;;5034017;28;20437;-88
2023/11/01 00:53:18;;;;;;;1.13;1.03;;;20.20;80.10;;;;;;5034056;28;20528;-88
2023/11/01 00:55:45;;;;;;;2.13;1.20;;;20.20;80.00;;;;;;5034154;28;20954;-88
2023/11/01 00:58:11;;;;;;;1.10;1.00;;;20.20;80.00;;;;;;5032806;28;20471;-88
2023/11/01 01:00:38;;;;;;;1.20;0.90;;;20.20;80.10;;;;;;5032061;28;20451;-88
2023/11/01 01:03:06;;;;;;;1.87;1.10;;;20.20;80.10;;;;;;5033163;28;20433;-88
2023/11/01 01:05:33;;;;;;;1.20;1.00;;;20.20;80.00;;;;;;5033069;28;20449;-88
2023/11/01 01:08:00;;;;;;;1.27;1.10;;;20.30;80.10;;;;;;5033667;28;20520;-88
2023/11/01 01:10:29;;;;;;;1.00;0.80;;;20.20;80.90;;;;;;5033817;28;20441;-88
2023/11/01 01:12:56;;;;;;;1.30;0.70;;;20.20;80.10;;;;;;5033775;28;20485;-88
2023/11/01 01:15:23;;;;;;;1.37;1.10;;;20.30;80.20;;;;;;5033641;28;20441;-88
2023/11/01 01:17:49;;;;;;;1.03;0.80;;;20.20;80.00;;;;;;5033818;28;20446;-88
2023/11/01 01:20:16;;;;;;;1.10;1.00;;;20.20;80.10;;;;;;5033440;28;20542;-88
2023/11/01 01:22:43;;;;;;;2.40;1.00;;;20.20;80.10;;;;;;5033627;28;20445;-88
2023/11/01 01:25:10;;;;;;;1.10;1.00;;;20.20;80.00;;;;;;5032711;28;20445;-88
2023/11/01 01:27:41;;;;;;;1.10;1.00;;;20.20;80.10;;;;;;5033496;28;20488;-88
2023/11/01 01:30:08;;;;;;;1.20;1.00;;;20.20;80.10;;;;;;5033650;28;20446;-89
2023/11/01 01:32:35;;;;;;;1.13;0.80;;;20.20;80.10;;;;;;5033483;28;20442;-88
2023/11/01 01:35:02;;;;;;;1.80;0.87;;;20.20;80.10;;;;;;5033395;28;20448;-88
2023/11/01 01:37:29;;;;;;;1.10;0.90;;;20.20;80.00;;;;;;5033255;28;20944;-88
2023/11/01 01:39:56;;;;;;;1.63;0.80;;;20.20;80.00;;;;;;5033324;28;20444;-88
2023/11/01 01:42:22;;;;;;;1.23;0.80;;;20.30;80.20;;;;;;5033333;28;20447;-88
2023/11/01 01:44:51;;;;;;;1.30;1.00;;;20.20;80.10;;;;;;5033381;28;20437;-88
2023/11/01 01:47:18;;;;;;;1.10;0.90;;;20.20;80.00;;;;;;5033100;28;20566;-88
2023/11/01 01:49:46;;;;;;;1.10;0.93;;;20.20;80.00;;;;;;5033131;28;20436;-88
2023/11/01 01:52:13;;;;;;;1.30;0.93;;;20.20;80.10;;;;;;5033253;28;20546;-88
2023/11/01 01:54:40;;;;;;;1.20;1.10;;;20.20;80.00;;;;;;5033152;28;20463;-88
2023/11/01 01:57:09;;;;;;;1.10;0.90;;;20.20;80.10;;;;;;5033154;28;20441;-88
2023/11/01 01:59:36;;;;;;;1.23;0.90;;;20.20;80.10;;;;;;5032830;28;20453;-89
2023/11/01 02:02:05;;;;;;;1.30;0.90;;;20.20;80.20;;;;;;5033104;28;20442;-88
2023/11/01 02:04:32;;;;;;;1.50;1.10;;;20.20;80.10;;;;;;5032887;28;20471;-88
2023/11/01 02:06:59;;;;;;;1.57;1.27;;;20.20;80.10;;;;;;5033004;28;20479;-88
2023/11/01 02:09:26;;;;;;;1.10;0.90;;;20.20;80.10;;;;;;5033058;28;20436;-88
2023/11/01 02:11:53;;;;;;;1.10;0.90;;;20.20;80.10;;;;;;5032855;28;20442;-88
2023/11/01 02:14:21;;;;;;;1.20;0.93;;;20.20;81.00;;;;;;5032924;28;20452;-88
2023/11/01 02:16:48;;;;;;;1.47;1.20;;;20.20;80.10;;;;;;5033094;28;20464;-88
2023/11/01 02:19:17;;;;;;;1.30;0.90;;;20.20;80.10;;;;;;5036953;28;20443;-88
2023/11/01 02:21:44;;;;;;;1.20;0.90;;;20.20;80.10;;;;;;5036983;28;20943;-88
2023/11/01 02:24:12;;;;;;;2.17;1.00;;;20.20;80.00;;;;;;5036847;28;20451;-88
2023/11/01 02:26:39;;;;;;;1.10;0.80;;;20.20;80.90;;;;;;5036781;28;20594;-88
2023/11/01 02:29:06;;;;;;;1.40;1.17;;;20.20;80.10;;;;;;5036913;28;20528;-88
2023/11/01 02:31:33;;;;;;;1.50;0.97;;;20.20;80.10;;;;;;5036893;28;20431;-92
2023/11/01 02:33:59;;;;;;;1.40;1.30;;;20.20;80.10;;;;;;5036883;28;20465;-88
2023/11/01 02:36:26;;;;;;;1.30;1.03;;;20.20;80.00;;;;;;5036626;28;20436;-88
2023/11/01 02:38:53;;;;;;;1.10;0.90;;;20.20;80.10;;;;;;5036489;28;20971;-88
2023/11/01 02:41:21;;;;;;;1.10;0.90;;;20.20;80.10;;;;;;5036497;28;20521;-88
2023/11/01 02:43:48;;;;;;;1.30;0.90;;;20.20;80.10;;;;;;5036649;28;20518;-88
2023/11/01 02:46:15;;;;;;;1.10;0.80;;;20.20;80.10;;;;;;5036559;28;20560;-88
2023/11/01 02:48:41;;;;;;;1.30;0.90;;;20.20;80.10;;;;;;5036488;28;21001;-88
2023/11/01 02:51:08;;;;;;;1.37;1.10;;;20.30;80.10;;;;;;5036371;28;20441;-88
2023/11/01 02:53:35;;;;;;;1.37;1.00;;;20.20;80.00;;;;;;5036278;28;20445;-88
2023/11/01 02:56:02;;;;;;;1.03;0.90;;;20.20;80.00;;;;;;5036413;28;20536;-88
2023/11/01 02:58:30;;;;;;;1.20;0.90;;;20.20;80.00;;;;;;5036580;28;20449;-88
2023/11/01 03:00:57;;;;;;;1.67;1.10;;;20.20;80.00;;;;;;5036248;28;20463;-88
2023/11/01 03:03:24;;;;;;;1.30;1.10;;;20.20;80.10;;;;;;5036095;28;20564;-88
2023/11/01 03:05:51;;;;;;;1.53;0.80;;;20.20;80.00;;;;;;5036199;28;20441;-88
2023/11/01 03:08:17;;;;;;;1.10;0.80;;;20.20;80.10;;;;;;5036201;28;20487;-89
2023/11/01 03:10:44;;;;;;;1.10;0.90;;;20.20;80.00;;;;;;5036122;28;20444;-88
2023/11/01 03:13:11;;;;;;;1.13;0.83;;;20.20;80.00;;;;;;5035916;28;20505;-88
2023/11/01 03:15:39;;;;;;;1.13;0.90;;;20.20;80.00;;;;;;5035888;28;20554;-88
2023/11/01 03:18:06;;;;;;;2.13;0.90;;;20.20;80.00;;;;;;5035869;28;20449;-88
2023/11/01 03:20:33;;;;;;;1.07;0.97;;;20.20;80.00;;;;;;5035989;28;20951;-88
2023/11/01 03:23:00;;;;;;;1.53;0.83;;;20.20;80.00;;;;;;5035825;28;20437;-88
2023/11/01 03:25:27;;;;;;;1.13;1.00;;;20.20;80.00;;;;;;5035828;28;20445;-88
2023/11/01 03:27:54;;;;;;;1.30;1.10;;;20.20;80.10;;;;;;5035642;28;20491;-88
2023/11/01 03:30:22;;;;;;;1.10;0.90;;;20.30;80.10;;;;;;5035057;28;20452;-88
2023/11/01 03:32:50;;;;;;;1.10;1.00;;;20.30;80.00;;;;;;5035776;28;20439;-88
2023/11/01 03:35:17;;;;;;;1.00;0.80;;;20.20;80.00;;;;;;5035673;28;20451;-88
2023/11/01 03:37:44;;;;;;;1.20;1.03;;;20.20;80.00;;;;;;5035614;28;20443;-88
2023/11/01 03:40:10;;;;;;;1.47;1.13;;;20.20;80.00;;;;;;5035584;28;20462;-88
2023/11/01 03:42:37;;;;;;;1.63;0.90;;;20.20;80.00;;;;;;5035470;28;20453;-88
2023/11/01 03:45:05;;;;;;;1.03;0.83;;;20.20;79.90;;;;;;5035559;28;20468;-88
2023/11/01 03:47:32;;;;;;;1.53;1.00;;;20.20;79.90;;;;;;5035287;28;20493;-88
2023/11/01 03:50:00;;;;;;;1.30;0.90;;;20.20;80.00;;;;;;5035432;28;20458;-88
2023/11/01 03:52:27;;;;;;;1.40;0.93;;;20.20;80.00;;;;;;5035455;28;20445;-89
2023/11/01 03:54:53;;;;;;;1.10;0.90;;;20.20;79.90;;;;;;5035340;28;20953;-87
2023/11/01 03:57:20;;;;;;;1.00;0.80;;;20.20;79.90;;;;;;5035348;28;20948;-88
2023/11/01 03:59:47;;;;;;;1.00;0.80;;;20.10;79.90;;;;;;5035252;28;20445;-88
2023/11/01 04:02:14;;;;;;;1.20;0.80;;;20.10;79.90;;;;;;5035083;28;20435;-88
2023/11/01 04:04:41;;;;;;;1.03;0.80;;;20.10;79.80;;;;;;5034830;28;20463;-88
2023/11/01 04:07:09;;;;;;;1.20;0.90;;;20.20;80.00;;;;;;5034971;28;20514;-88
2023/11/01 04:09:36;;;;;;;1.20;1.00;;;20.10;79.90;;;;;;5035049;28;20930;-88
2023/11/01 04:12:03;;;;;;;1.10;0.80;;;20.10;79.80;;;;;;5034942;28;20440;-88
2023/11/01 04:14:29;;;;;;;1.00;0.80;;;20.10;79.80;;;;;;5035042;28;20955;-88
2023/11/01 04:16:56;;;;;;;1.80;0.93;;;20.10;79.90;;;;;;5034788;28;20832;-88
2023/11/01 04:19:23;;;;;;;1.10;0.80;;;20.10;79.90;;;;;;5034816;28;20789;-88
2023/11/01 04:21:50;;;;;;;1.30;1.10;;;20.20;79.90;;;;;;5034913;28;20527;-88
2023/11/01 04:24:19;;;;;;;1.10;0.90;;;20.10;79.90;;;;;;5034774;28;20515;-88
2023/11/01 04:26:46;;;;;;;1.83;0.80;;;20.10;79.80;;;;;;5034714;28;20439;-88
2023/11/01 04:29:13;;;;;;;1.63;1.03;;;20.10;79.80;;;;;;5034522;28;20448;-88
2023/11/01 04:31:39;;;;;;;1.87;1.10;;;20.10;79.90;;;;;;5034588;28;21033;-88
2023/11/01 04:34:06;;;;;;;1.40;1.07;;;20.10;79.90;;;;;;5034804;28;20447;-88
2023/11/01 04:36:35;;;;;;;1.10;0.90;;;20.10;79.90;;;;;;5034579;28;20436;-88
2023/11/01 04:39:03;;;;;;;1.00;0.80;;;20.10;79.80;;;;;;5034302;28;20443;-88
2023/11/01 04:41:31;;;;;;;2.13;0.90;;;20.10;79.90;;;;;;5033378;28;20439;-87
2023/11/01 04:43:58;;;;;;;1.10;0.80;;;20.10;79.90;;;;;;5034385;28;20467;-88
2023/11/01 04:46:25;;;;;;;1.10;0.90;;;20.10;79.90;;;;;;5034246;28;20463;-88
2023/11/01 04:48:51;;;;;;;0.90;0.70;;;20.10;80.00;;;;;;5034193;28;20837;-88
2023/11/01 04:51:18;;;;;;;1.33;1.00;;;20.10;79.90;;;;;;5034334;28;20445;-88
2023/11/01 04:53:45;;;;;;;1.00;0.80;;;20.10;79.90;;;;;;5034335;28;20436;-88
2023/11/01 04:56:12;;;;;;;1.60;0.90;;;20.10;79.80;;;;;;5034118;28;20861;-88
2023/11/01 04:58:40;;;;;;;1.07;0.80;;;20.10;79.90;;;;;;5050909;28;20434;-88
2023/11/01 05:01:07;;;;;;;1.30;0.93;;;20.10;79.90;;;;;;5051861;28;20436;-88
2023/11/01 05:03:45;;;;;;;1.33;0.80;;;20.10;79.90;;;;;;5109145;27;1240265;-88
2023/11/01 05:06:12;;;;;;;1.10;0.83;;;20.10;79.90;;;;;;5130657;28;20188;-88
2023/11/01 05:08:39;;;;;;;1.47;0.80;;;20.10;79.90;;;;;;5131019;28;20463;-88
2023/11/01 05:11:06;;;;;;;1.00;0.77;;;20.10;79.90;;;;;;5130854;28;20440;-88
2023/11/01 05:13:33;;;;;;;1.90;0.73;;;20.10;79.90;;;;;;5130840;28;20465;-88
2023/11/01 05:15:59;;;;;;;1.00;0.80;;;20.20;80.00;;;;;;5123003;28;20454;-88
2023/11/01 05:18:27;;;;;;;1.10;0.90;;;20.10;79.80;;;;;;5110464;28;20431;-88
2023/11/01 05:20:55;;;;;;;1.10;0.70;;;20.10;79.90;;;;;;5110758;28;20451;-88
2023/11/01 05:23:22;;;;;;;1.00;0.70;;;20.20;80.00;;;;;;5110782;28;20486;-88
2023/11/01 05:25:50;;;;;;;1.10;0.80;;;20.10;79.90;;;;;;5110673;28;20477;-88
2023/11/01 05:28:17;;;;;;;1.00;0.70;;;20.10;79.90;;;;;;5110677;28;20446;-88
2023/11/01 05:30:46;;;;;;;1.20;1.00;;;20.10;79.90;;;;;;5110547;28;21007;-88
2023/11/01 05:33:13;;;;;;;2.13;1.20;;;20.10;79.90;;;;;;5110508;28;20942;-88
2023/11/01 05:35:42;;;;;;;1.10;0.90;;;20.10;79.90;;;;;;5110469;28;20437;-88
2023/11/01 05:38:10;;;;;;;1.00;0.80;;;20.10;79.90;;;;;;5110682;28;20438;-88
2023/11/01 05:40:37;;;;;;;1.30;0.90;;;20.10;79.90;;;;;;5110516;28;20532;-88
2023/11/01 05:43:04;;;;;;;1.00;0.80;;;20.10;80.00;;;;;;5110243;28;20495;-88
2023/11/01 05:45:31;;;;;;;1.00;0.80;;;20.10;79.90;;;;;;5110251;28;20462;-88
2023/11/01 05:47:59;;;;;;;1.00;0.70;;;20.10;79.90;;;;;;5110230;28;20465;-88
2023/11/01 05:50:26;;;;;;;1.10;0.87;;;20.10;79.90;;;;;;5110162;28;20462;-88
2023/11/01 05:52:55;;;;;;;1.40;0.80;;;20.10;79.90;;;;;;5110196;28;20446;-88
2023/11/01 05:55:24;;;;;;;1.10;0.80;;;20.10;80.00;;;;;;5110183;28;20554;-88
2023/11/01 05:57:51;;;;;;;1.40;0.80;;;20.10;79.90;;;;;;5110015;28;20435;-88
2023/11/01 06:00:18;;;;;;;1.00;0.90;;;20.10;80.00;;;;;;5110047;28;20488;-88
2023/11/01 06:02:45;;;;;;;1.40;0.80;;;20.10;80.00;;;;;;5109627;28;20497;-88
2023/11/01 06:05:14;;;;;;;1.00;0.90;;;20.10;80.00;;;;;;5109901;28;20447;-88
2023/11/01 06:07:42;;;;;;;1.20;0.80;;;20.10;80.00;;;;;;5109734;28;20503;-88
2023/11/01 06:10:10;;;;;;;1.10;0.90;;;20.10;80.00;;;;;;5109953;28;20807;-88
2023/11/01 06:12:38;;;;;;;1.03;0.70;;;20.10;80.00;;;;;;5109730;28;20441;-88
2023/11/01 06:15:10;;;;;;;1.10;0.80;;;20.10;80.00;;;;;;5096122;28;20534;-88
2023/11/01 06:17:37;;;;;;;1.10;0.77;;;20.10;80.00;;;;;;5096362;28;20792;-88
2023/11/01 06:20:05;;;;;;;1.00;0.70;;;20.10;80.00;;;;;;5096157;28;20434;-88
2023/11/01 06:22:32;;;;;;;1.80;0.80;;;20.10;80.00;;;;;;5095929;28;20475;-88
2023/11/01 06:25:00;;;;;;;1.00;0.70;;;20.10;80.00;;;;;;5096177;28;20445;-88
2023/11/01 06:27:28;;;;;;;1.07;0.80;;;20.10;80.00;;;;;;5096017;28;20443;-88
2023/11/01 06:29:56;;;;;;;1.10;0.80;;;20.10;80.00;;;;;;5095912;28;20802;-88
2023/11/01 06:32:23;;;;;;;1.10;1.00;;;20.10;80.00;;;;;;5095827;28;20531;-88
2023/11/01 06:34:50;;;;;;;1.00;0.70;;;20.10;80.00;;;;;;5095815;28;20529;-89
2023/11/01 06:37:18;;;;;;;1.27;0.77;;;20.10;80.00;;;;;;5096496;28;20457;-93
2023/11/01 06:39:45;;;;;;;1.10;0.90;;;20.10;80.00;;;;;;5096407;28;20456;-95
2023/11/01 06:42:12;;;;;;;1.10;0.70;;;20.10;80.00;;;;;;5095790;28;20484;-95
2023/11/01 06:44:38;;;;;;;1.10;0.70;;;20.10;80.00;;;;;;5096067;28;20450;-95
2023/11/01 06:47:07;;;;;;;1.00;0.70;;;20.20;80.20;;;;;;5095972;28;20538;-94
2023/11/01 06:49:34;;;;;;;1.00;0.77;;;20.10;80.00;;;;;;5096440;28;20790;-96
2023/11/01 06:52:01;;;;;;;1.20;0.80;;;20.10;80.00;;;;;;5095943;28;20473;-95
2023/11/01 06:54:28;;;;;;;1.07;0.80;;;20.10;80.00;;;;;;5096810;28;20449;-95
2023/11/01 06:56:56;;;;;;;1.20;0.70;;;20.10;80.10;;;;;;5108779;28;20427;-92
2023/11/01 06:59:28;;;;;;;1.10;0.80;;;20.00;80.00;;;;;;5121401;22;20471;-96
2023/11/01 07:01:55;;;;;;;1.20;0.83;;;20.10;80.10;;;;;;5077022;28;20922;-96
2023/11/01 07:04:23;;;;;;;1.20;0.80;;;20.10;80.10;;;;;;5076189;28;20460;-96
2023/11/01 07:06:51;;;;;;;1.40;0.70;;;20.10;80.20;;;;;;5075934;28;20874;-96
2023/11/01 07:09:18;;;;;;;1.10;0.80;;;20.10;80.30;;;;;;5075894;28;21006;-96
2023/11/01 07:11:44;;;;;;;1.37;0.90;;;20.10;80.30;;;;;;5075742;28;20884;-95
2023/11/01 07:14:11;;;;;;;0.97;0.70;;;20.10;80.30;;;;;;5076407;28;20452;-95
2023/11/01 07:16:41;;;;;;;5.23;1.73;;;20.10;80.40;;;;;;5092488;28;20549;-95
2023/11/01 07:19:08;;;;;;;1.73;1.10;;;20.10;80.70;;;;;;5096643;28;20524;-95
2023/11/01 07:21:36;;;;;;;1.10;0.70;;;20.10;80.70;;;;;;5096093;28;20533;-90
2023/11/01 07:24:03;;;;;;;1.20;0.70;;;20.10;80.50;;;;;;5095355;28;20521;-89
2023/11/01 07:26:30;;;;;;;1.20;0.80;;;20.10;80.50;;;;;;5094313;28;20542;-89
2023/11/01 07:28:59;;;;;;;1.67;0.70;;;20.20;80.60;;;;;;5095205;28;20865;-89
2023/11/01 07:31:25;;;;;;;1.50;0.83;;;20.20;80.60;;;;;;5095279;28;20443;-89
2023/11/01 07:33:53;;;;;;;1.20;0.70;;;20.20;80.80;;;;;;5095008;28;20444;-89
2023/11/01 07:36:20;;;;;;;2.23;0.90;;;20.20;81.70;;;;;;5095121;28;20520;-89
2023/11/01 07:38:49;;;;;;;2.23;0.90;;;20.20;80.90;;;;;;5095047;28;20450;-89
2023/11/01 07:41:16;;;;;;;1.00;0.70;;;20.20;80.80;;;;;;5094878;28;20450;-88
2023/11/01 07:43:43;;;;;;;1.30;1.10;;;20.20;80.70;;;;;;5095114;28;20589;-96
2023/11/01 07:46:11;;;;;;;3.20;1.00;;;20.20;80.70;;;;;;5098884;28;20560;-94
2023/11/01 07:48:38;;;;;;;2.57;1.23;;;20.20;80.70;;;;;;5101299;28;20450;-96
2023/11/01 07:51:07;;;;;;;1.20;0.80;;;20.20;80.80;;;;;;5104252;28;20466;-96
2023/11/01 07:53:36;;;;;;;1.20;0.90;;;20.30;80.90;;;;;;5111463;28;20464;-95
2023/11/01 07:56:06;;;;;;;2.27;1.00;;;20.30;80.90;;;;;;5098883;28;20435;-94
2023/11/01 07:58:33;;;;;;;1.50;0.90;;;20.20;80.80;;;;;;5094406;28;20478;-93
2023/11/01 08:01:00;;;;;;;1.63;1.17;;;20.30;80.80;;;;;;5094342;28;20937;-93
2023/11/01 08:03:29;;;;;;;2.60;0.80;;;20.30;81.00;;;;;;5095609;28;20493;-96
2023/11/01 08:05:56;;;;;;;1.50;1.00;;;20.30;80.90;;;;;;5096878;28;20438;-94
2023/11/01 08:08:22;;;;;;;1.20;0.90;;;20.30;80.80;;;;;;5097279;28;20527;-95
2023/11/01 08:10:49;;;;;;;1.20;0.90;;;20.40;81.10;;;;;;5094754;28;20806;-95
2023/11/01 08:13:18;;;;;;;1.40;0.80;;;20.20;80.90;;;;;;5094872;28;20454;-96
2023/11/01 08:15:45;;;;;;;2.13;1.20;;;20.30;80.90;;;;;;5095463;28;20499;-95
2023/11/01 08:18:11;;;;;;;1.37;0.70;;;20.30;81.00;;;;;;5096670;28;20447;-96
2023/11/01 08:20:40;;;;;;;2.30;1.00;;;20.30;80.90;;;;;;5100406;28;20443;-96
2023/11/01 08:23:07;;;;;;;1.00;0.80;;;20.30;81.00;;;;;;5110879;28;20847;-96
2023/11/01 08:25:38;;;;;;;3.03;1.10;;;20.30;81.90;;;;;;5093530;22;20539;-96
2023/11/01 08:28:09;;;;;;;1.00;0.77;;;20.30;80.80;;;;;;5093528;28;20448;-95
2023/11/01 08:30:58;;;;;;;3.20;1.00;;;20.30;80.80;;;;;;5099914;22;20490;-93
2023/11/01 08:36:39;;;;;;;1.70;1.00;;;20.30;81.00;;;;;;4783370;26;20465;-96
2023/11/01 08:39:07;;;;;;;2.27;0.93;;;20.30;81.80;;;;;;5057117;28;20469;-96
2023/11/01 08:42:08;;;;;;;18.70;4.80;;;20.30;81.00;;;;;;5399898;22;20508;-96
2023/11/01 08:50:10;;;;;;;16.00;9.77;;;20.30;81.70;;;;;;1212097;26;20519;-94
2023/11/01 08:58:01;;;;;;;12.20;6.67;;;20.30;83.20;;;;;;5087564;28;20455;-96
2023/11/01 09:00:52;;;;;;;17.63;8.50;;;20.40;82.40;;;;;;5087015;28;20455;-94
2023/11/01 09:03:22;;;;;;;15.60;8.03;;;20.40;82.50;;;;;;5169983;22;20508;-96
2023/11/01 09:13:44;;;;;;;9.70;5.43;;;20.70;81.70;;;;;;5068758;28;20460;-95
2023/11/01 09:16:11;;;;;;;11.80;5.00;;;20.80;81.30;;;;;;5070599;28;20509;-93
2023/11/01 09:18:38;;;;;;;9.70;4.40;;;21.00;80.80;;;;;;5072195;28;20440;-91
2023/11/01 09:21:07;;;;;;;9.53;4.17;;;21.30;80.30;;;;;;5053555;28;20429;-90
2023/11/01 09:23:35;;;;;;;7.63;3.83;;;21.60;79.20;;;;;;5053309;28;20511;-95
2023/11/01 09:26:02;;;;;;;10.03;4.73;;;21.90;78.40;;;;;;5056441;28;20441;-96
2023/11/01 09:28:29;;;;;;;10.60;4.20;;;22.20;77.60;;;;;;5037762;28;20441;-95
2023/11/01 09:30:57;;;;;;;7.70;3.57;;;22.30;77.60;;;;;;5054330;28;20439;-93
2023/11/01 09:33:24;;;;;;;4.70;2.93;;;22.20;77.40;;;;;;5054614;28;20467;-95
2023/11/01 09:35:51;;;;;;;8.00;3.90;;;22.10;77.80;;;;;;5054705;28;20440;-93
2023/11/01 09:38:18;;;;;;;6.70;3.47;;;21.90;78.30;;;;;;5053591;28;20444;-93
2023/11/01 09:40:45;;;;;;;9.23;3.93;;;21.70;78.30;;;;;;5054952;28;20441;-94
2023/11/01 09:43:19;;;;;;;4.33;3.60;;;21.60;78.70;;;;;;5036415;28;20912;-93
2023/11/01 09:45:46;;;;;;;6.27;3.50;;;21.50;79.20;;;;;;5055087;28;20464;-93
2023/11/01 09:48:15;;;;;;;6.47;3.37;;;21.40;79.30;;;;;;5055046;28;20460;-94
2023/11/01 09:50:44;;;;;;;6.60;3.40;;;21.40;79.60;;;;;;5058924;28;20488;-95
2023/11/01 09:53:11;;;;;;;8.63;3.63;;;21.30;79.70;;;;;;5058147;28;20843;-96
2023/11/01 09:55:40;;;;;;;9.40;4.70;;;21.20;79.60;;;;;;5057553;28;20533;-95
2023/11/01 09:58:11;;;;;;;3.93;3.00;;;21.20;79.80;;;;;;5058262;28;20532;-93
2023/11/01 10:00:38;;;;;;;10.00;3.63;;;21.20;79.90;;;;;;5058005;28;20425;-92
2023/11/01 10:03:06;;;;;;;6.90;3.40;;;21.20;79.70;;;;;;5057480;28;20492;-90
2023/11/01 10:05:34;;;;;;;6.27;2.50;;;21.40;79.80;;;;;;5057152;28;20488;-92
2023/11/01 10:08:01;;;;;;;4.77;2.40;;;21.40;79.50;;;;;;5057000;28;20456;-92
2023/11/01 10:10:28;;;;;;;3.43;2.20;;;21.40;79.40;;;;;;5056926;28;20528;-91
2023/11/01 10:12:55;;;;;;;8.80;2.83;;;21.50;79.20;;;;;;5056052;28;20473;-92
2023/11/01 10:15:22;;;;;;;4.43;2.47;;;21.50;79.20;;;;;;5056370;28;20551;-91
2023/11/01 10:17:51;;;;;;;6.23;2.67;;;21.50;79.20;;;;;;5056557;28;20531;-91
2023/11/01 10:20:27;;;;;;;5.40;2.67;;;21.40;79.30;;;;;;5056412;28;20463;-89
2023/11/01 10:22:57;;;;;;;16.43;3.07;;;21.40;79.30;;;;;;5056301;28;20916;-91
2023/11/01 10:25:24;;;;;;;12.77;2.07;;;21.30;79.80;;;;;;5056365;28;20440;-90
2023/11/01 10:27:52;;;;;;;7.17;2.67;;;21.20;79.90;;;;;;5056178;28;20920;-91
2023/11/01 10:30:19;;;;;;;4.27;1.93;;;21.20;79.90;;;;;;5055927;28;20511;-89
2023/11/01 10:32:55;;;;;;;3.93;2.53;;;21.20;79.90;;;;;;5056110;28;20441;-91
2023/11/01 10:35:22;;;;;;;2.30;1.93;;;21.10;80.00;;;;;;5055882;28;20904;-94
2023/11/01 10:37:58;;;;;;;4.03;2.17;;;21.10;80.10;;;;;;5056226;28;20452;-91
2023/11/01 10:40:26;;;;;;;9.23;2.33;;;21.00;80.20;;;;;;5055940;28;20435;-92
2023/11/01 10:42:57;;;;;;;4.47;2.80;;;21.00;80.30;;;;;;5055959;28;20449;-92
2023/11/01 10:45:23;;;;;;;8.23;2.10;;;21.00;80.30;;;;;;5055804;28;20534;-92
2023/11/01 10:47:52;;;;;;;3.10;1.50;;;21.00;80.40;;;;;;5055804;28;20444;-90
2023/11/01 10:50:19;;;;;;;5.57;2.00;;;21.00;80.50;;;;;;5055543;28;20441;-89
2023/11/01 10:52:47;;;;;;;7.23;2.43;;;21.00;80.70;;;;;;5055355;28;20433;-90
2023/11/01 10:55:19;;;;;;;6.57;2.43;;;21.10;80.20;;;;;;5055454;28;20437;-89
2023/11/01 10:57:48;;;;;;;4.90;2.17;;;21.10;80.10;;;;;;5055163;28;20441;-89
2023/11/01 11:00:18;;;;;;;5.10;1.90;;;21.10;80.40;;;;;;5055222;28;20524;-90
2023/11/01 11:02:51;;;;;;;2.50;1.93;;;21.20;80.40;;;;;;5055340;28;20528;-88
2023/11/01 11:05:23;;;;;;;3.33;1.93;;;21.10;80.40;;;;;;5055177;28;20811;-90
2023/11/01 11:07:52;;;;;;;2.57;1.37;;;21.10;80.40;;;;;;5055271;28;20445;-88
2023/11/01 11:10:25;;;;;;;5.60;2.47;;;21.20;80.40;;;;;;5055237;28;20507;-88
2023/11/01 11:13:37;;;;;;;5.70;2.10;;;21.30;80.50;;;;;;5055170;28;20477;-90
2023/11/01 11:16:07;;;;;;;4.13;2.10;;;21.20;80.80;;;;;;5062191;28;20429;-93
2023/11/01 11:18:57;;;;;;;3.57;1.97;;;21.20;80.70;;;;;;5055488;28;20532;-95
2023/11/01 11:22:02;;;;;;;3.67;1.57;;;21.30;80.50;;;;;;5056329;28;20463;-93
2023/11/01 11:24:47;;;;;;;1.90;1.30;;;21.20;80.50;;;;;;5056538;28;20509;-95
2023/11/01 11:27:51;;;;;;;4.53;1.90;;;21.30;80.80;;;;;;5055075;28;20437;-92
2023/11/01 11:30:50;;;;;;;4.40;1.90;;;21.20;80.80;;;;;;5055187;28;20444;-96
2023/11/01 11:33:18;;;;;;;5.93;1.47;;;21.20;81.00;;;;;;5050362;28;20455;-94
2023/11/01 11:35:44;;;;;;;3.60;1.20;;;21.20;80.80;;;;;;5055433;28;20777;-92
2023/11/01 11:38:30;;;;;;;4.10;1.80;;;21.20;80.80;;;;;;5056180;28;20448;-92
2023/11/01 11:41:17;;;;;;;3.10;1.13;;;21.20;80.90;;;;;;5054644;28;20424;-91
2023/11/01 11:44:06;;;;;;;2.70;1.50;;;21.30;80.90;;;;;;5054918;28;20515;-92
2023/11/01 11:46:35;;;;;;;1.67;1.10;;;21.30;80.90;;;;;;5055381;28;20487;-92
2023/11/01 11:49:03;;;;;;;2.63;1.90;;;21.30;80.70;;;;;;5055941;28;20473;-92
2023/11/01 11:51:33;;;;;;;2.80;1.30;;;21.30;80.70;;;;;;5055042;28;20452;-92
2023/11/01 11:54:11;;;;;;;4.93;1.70;;;21.40;80.80;;;;;;5054605;28;20449;-93
2023/11/01 11:56:48;;;;;;;2.23;1.40;;;21.30;80.30;;;;;;5055043;28;20437;-92
2023/11/01 11:59:21;;;;;;;1.70;1.50;;;21.30;80.40;;;;;;5055262;28;20476;-93
2023/11/01 12:01:51;;;;;;;3.60;2.10;;;21.30;80.40;;;;;;5055262;28;20468;-93
2023/11/01 12:04:19;;;;;;;3.13;1.13;;;21.20;80.40;;;;;;5054203;28;20841;-93
2023/11/01 12:06:47;;;;;;;3.50;1.43;;;21.30;80.60;;;;;;5055210;28;20452;-93
2023/11/01 12:09:17;;;;;;;3.40;1.50;;;21.20;80.60;;;;;;5054545;28;20445;-94
2023/11/01 12:11:45;;;;;;;3.20;1.63;;;21.20;80.50;;;;;;5054026;28;20559;-93
2023/11/01 12:14:17;;;;;;;7.13;1.40;;;21.20;80.40;;;;;;5054581;28;20479;-93
2023/11/01 12:16:45;;;;;;;4.40;1.53;;;21.20;80.40;;;;;;5054469;28;20424;-93
2023/11/01 12:19:16;;;;;;;2.33;1.20;;;21.20;81.40;;;;;;5054279;28;20456;-93
2023/11/01 12:21:44;;;;;;;2.57;1.37;;;21.20;80.60;;;;;;5054715;28;20434;-93
2023/11/01 12:24:14;;;;;;;4.53;1.30;;;21.20;80.50;;;;;;5053924;28;20493;-94
2023/11/01 12:27:06;;;;;;;1.40;0.90;;;21.20;80.60;;;;;;5054358;28;20450;-95
2023/11/01 12:29:34;;;;;;;3.77;1.50;;;21.20;80.80;;;;;;5044250;28;20495;-94
2023/11/01 12:32:04;;;;;;;5.77;1.80;;;21.20;80.60;;;;;;5053880;28;20447;-93
2023/11/01 12:34:32;;;;;;;6.77;1.70;;;21.20;80.00;;;;;;5053831;28;20438;-94
2023/11/01 12:37:07;;;;;;;5.10;1.40;;;21.20;80.30;;;;;;5053647;28;20437;-94
2023/11/01 12:39:35;;;;;;;2.90;1.57;;;21.20;80.40;;;;;;5054016;28;20463;-94
2023/11/01 12:42:21;;;;;;;2.30;1.40;;;21.20;80.40;;;;;;5056007;28;20834;-95
2023/11/01 12:44:49;;;;;;;3.57;1.77;;;21.20;80.30;;;;;;5054503;28;20495;-86
2023/11/01 12:47:17;;;;;;;3.43;1.30;;;21.30;80.60;;;;;;5053515;28;20433;-85
2023/11/01 12:49:45;;;;;;;3.00;1.40;;;21.30;80.70;;;;;;5053689;28;20532;-90
2023/11/01 12:52:12;;;;;;;1.60;1.10;;;21.30;80.80;;;;;;5065210;28;20476;-87
2023/11/01 12:54:45;;;;;;;4.50;1.20;;;21.20;80.70;;;;;;5065098;28;20463;-90
2023/11/01 12:57:13;;;;;;;4.63;1.27;;;21.30;80.90;;;;;;5056219;28;20437;-96
2023/11/01 12:59:44;;;;;;;4.70;1.43;;;21.30;80.80;;;;;;5068715;28;20430;-94
2023/11/01 13:02:10;;;;;;;1.73;1.30;;;21.30;80.60;;;;;;5053728;28;20955;-95
2023/11/01 13:04:39;;;;;;;4.33;1.50;;;21.40;80.80;;;;;;5053689;28;20595;-95
2023/11/01 13:07:06;;;;;;;3.90;1.17;;;21.40;80.80;;;;;;5053993;28;20445;-96
2023/11/01 13:09:33;;;;;;;5.47;1.53;;;21.40;80.70;;;;;;5057010;28;20785;-96
2023/11/01 13:12:02;;;;;;;7.00;1.43;;;21.30;80.70;;;;;;5060026;28;20478;-93
2023/11/01 13:14:29;;;;;;;3.40;1.43;;;21.30;80.80;;;;;;5053658;28;20473;-93
2023/11/01 13:16:56;;;;;;;4.00;1.57;;;21.40;80.90;;;;;;5053480;28;20441;-93